Time;durP1;ratioP1;P1;durP2;ratioP2;P2;SDS_P1;SDS_P2;PMS_P1;PMS_P2;Temp;Humidity;BMP_temperature;BMP_pressure;BME280_temperature;BME280_humidity;BME280_pressure;Samples;Min_cycle;Max_cycle;Signal;HPM_P1;HPM_P2
2023/10/29 00:01:31;;;;;;;8.90;0.90;;;;;;;16.26;100.00;98999.75;5264736;28;20355;-72
2023/10/29 00:04:02;;;;;;;5.10;1.35;;;;;;;16.05;100.00;98966.97;5263810;28;20130;-72
2023/10/29 00:06:32;;;;;;;4.63;0.80;;;;;;;16.09;100.00;98964.59;5261220;28;20124;-72
2023/10/29 00:09:03;;;;;;;4.20;1.00;;;;;;;16.05;100.00;98960.75;5268084;28;20013;-72
2023/10/29 00:11:33;;;;;;;2.40;0.80;;;;;;;16.00;100.00;98976.91;5261917;28;20110;-72
2023/10/29 00:14:04;;;;;;;4.78;0.90;;;;;;;16.07;100.00;99001.09;5264706;28;20452;-72
2023/10/29 00:16:35;;;;;;;1.45;0.65;;;;;;;16.02;100.00;98999.13;5262864;28;20099;-72
2023/10/29 00:19:05;;;;;;;4.45;0.90;;;;;;;16.07;100.00;98980.28;5261468;28;20027;-72
2023/10/29 00:21:36;;;;;;;4.35;0.57;;;;;;;16.18;100.00;98987.47;5263853;28;20439;-72
2023/10/29 00:24:07;;;;;;;2.88;0.90;;;;;;;16.07;100.00;98968.63;5261166;28;20024;-72
2023/10/29 00:26:37;;;;;;;4.70;0.80;;;;;;;16.21;100.00;98992.34;5263465;28;20020;-72
2023/10/29 00:29:08;;;;;;;3.28;0.73;;;;;;;16.14;100.00;98986.31;5263796;28;20381;-72
2023/10/29 00:31:38;;;;;;;5.28;0.88;;;;;;;16.21;100.00;98986.94;5270857;28;20020;-72
2023/10/29 00:34:09;;;;;;;1.45;0.60;;;;;;;16.33;100.00;98983.34;5266377;28;20046;-72
2023/10/29 00:36:39;;;;;;;1.30;0.77;;;;;;;16.36;100.00;98978.25;5265526;28;20648;-72
2023/10/29 00:39:10;;;;;;;2.95;0.93;;;;;;;16.33;100.00;98967.94;5263270;28;20055;-72
2023/10/29 00:41:42;;;;;;;5.10;0.93;;;;;;;16.19;100.00;98988.28;5264330;28;20036;-72
2023/10/29 00:44:12;;;;;;;2.55;0.40;;;;;;;16.13;100.00;98978.47;5261826;28;20058;-72
2023/10/29 00:46:43;;;;;;;4.00;0.82;;;;;;;16.19;100.00;98975.56;5267220;28;20593;-72
2023/10/29 00:49:13;;;;;;;2.35;0.80;;;;;;;16.18;100.00;98959.59;5266939;28;20028;-72
2023/10/29 00:51:44;;;;;;;5.07;0.80;;;;;;;16.08;100.00;98972.97;5263819;28;20012;-72
2023/10/29 00:54:15;;;;;;;2.55;0.70;;;;;;;16.07;100.00;98990.28;5263063;28;20023;-72
2023/10/29 00:56:45;;;;;;;1.40;0.70;;;;;;;16.01;100.00;98983.94;5258498;28;20020;-72
2023/10/29 00:59:16;;;;;;;4.00;0.75;;;;;;;15.96;100.00;98973.84;5255724;28;20020;-73
2023/10/29 01:01:47;;;;;;;3.97;0.80;;;;;;;15.91;100.00;98964.84;5260472;28;20537;-72
2023/10/29 01:04:18;;;;;;;1.20;0.60;;;;;;;15.95;100.00;98964.13;5261925;28;20008;-72
2023/10/29 01:06:49;;;;;;;2.22;0.60;;;;;;;15.88;100.00;98951.84;5263790;28;20043;-72
2023/10/29 01:09:19;;;;;;;0.60;0.55;;;;;;;15.94;100.00;98948.97;5265037;28;20385;-72
2023/10/29 01:11:50;;;;;;;1.42;0.60;;;;;;;15.90;100.00;98960.50;5260920;28;20028;-72
2023/10/29 01:14:20;;;;;;;0.73;0.40;;;;;;;15.79;100.00;98973.88;5260194;28;20023;-72
2023/10/29 01:16:51;;;;;;;2.00;0.60;;;;;;;15.74;100.00;98976.50;5263665;28;20016;-72
2023/10/29 01:19:21;;;;;;;2.13;0.65;;;;;;;15.57;100.00;98966.72;5262207;28;20024;-72
2023/10/29 01:21:52;;;;;;;2.13;0.75;;;;;;;15.60;100.00;98974.31;5263918;28;20024;-72
2023/10/29 01:24:22;;;;;;;5.18;1.15;;;;;;;15.64;100.00;98967.41;5257963;28;20024;-72
2023/10/29 01:26:53;;;;;;;2.65;1.02;;;;;;;15.61;100.00;98971.38;5263653;28;20054;-72
2023/10/29 01:29:24;;;;;;;3.38;0.88;;;;;;;15.46;100.00;98960.28;5260115;28;20046;-72
2023/10/29 01:31:54;;;;;;;1.85;0.55;;;;;;;15.47;100.00;98960.06;5262903;28;20024;-72
2023/10/29 01:34:25;;;;;;;2.58;0.60;;;;;;;15.41;100.00;98961.06;5261906;28;20082;-72
2023/10/29 01:36:55;;;;;;;2.67;0.90;;;;;;;15.34;100.00;98967.66;5264315;28;20022;-72
2023/10/29 01:39:26;;;;;;;1.52;0.60;;;;;;;15.15;100.00;98959.75;5265296;28;20053;-72
2023/10/29 01:41:57;;;;;;;3.10;0.85;;;;;;;15.06;100.00;98963.06;5263241;28;20028;-72
2023/10/29 01:44:28;;;;;;;3.67;0.88;;;;;;;15.00;100.00;98957.56;5262602;28;20034;-73
2023/10/29 01:46:58;;;;;;;2.40;0.70;;;;;;;15.08;100.00;98971.78;5265692;28;20012;-73
2023/10/29 01:49:29;;;;;;;1.77;0.60;;;;;;;15.07;100.00;98976.34;5264365;28;20030;-72
2023/10/29 01:51:59;;;;;;;6.03;1.02;;;;;;;15.03;100.00;98975.19;5263451;28;20016;-72
2023/10/29 01:54:30;;;;;;;3.97;0.93;;;;;;;15.10;100.00;98981.25;5263578;28;20024;-72
2023/10/29 01:57:00;;;;;;;4.22;0.70;;;;;;;14.96;100.00;98955.59;5265291;28;20016;-73
2023/10/29 01:59:31;;;;;;;2.13;0.90;;;;;;;15.01;100.00;98966.53;5265386;28;20030;-72
2023/10/29 02:02:02;;;;;;;5.60;1.25;;;;;;;15.07;100.00;98980.94;5267393;28;20055;-73
2023/10/29 02:04:33;;;;;;;3.58;0.80;;;;;;;15.20;100.00;98970.66;5269592;28;20030;-72
2023/10/29 02:07:16;;;;;;;4.28;1.63;;;;;;;15.27;100.00;98974.03;5261781;28;20024;-72
2023/10/29 02:09:46;;;;;;;2.05;0.75;;;;;;;15.23;100.00;98972.88;5260329;28;20030;-72
2023/10/29 02:12:17;;;;;;;1.50;0.43;;;;;;;15.39;100.00;98968.56;5262050;28;20053;-72
2023/10/29 02:14:47;;;;;;;2.88;0.80;;;;;;;15.53;100.00;98982.59;5262635;28;20024;-72
2023/10/29 02:17:30;;;;;;;2.95;0.60;;;;;;;15.51;100.00;98974.75;5258310;28;20099;-72
2023/10/29 02:20:01;;;;;;;4.13;0.90;;;;;;;15.63;100.00;98968.44;5265911;28;20401;-72
2023/10/29 02:22:31;;;;;;;2.65;0.50;;;;;;;15.67;100.00;98965.03;5269031;28;20031;-72
2023/10/29 02:25:02;;;;;;;3.58;0.82;;;;;;;15.70;100.00;98961.81;5262087;28;20115;-72
2023/10/29 02:27:33;;;;;;;5.07;0.50;;;;;;;15.57;100.00;98964.00;5269161;28;20140;-72
2023/10/29 02:30:17;;;;;;;2.05;0.60;;;;;;;15.79;100.00;98952.25;5265338;28;20020;-72
2023/10/29 02:32:48;;;;;;;2.47;0.57;;;;;;;15.86;100.00;98960.19;5262419;28;20026;-72
2023/10/29 02:35:33;;;;;;;1.08;0.50;;;;;;;15.74;100.00;98949.47;5258718;28;20020;-72
2023/10/29 02:38:03;;;;;;;4.03;0.68;;;;;;;15.77;100.00;98965.19;5265387;28;20032;-72
2023/10/29 02:40:34;;;;;;;1.08;0.52;;;;;;;15.88;100.00;98966.19;5265304;28;20035;-72
2023/10/29 02:43:06;;;;;;;1.55;0.60;;;;;;;15.83;100.00;98973.41;5267033;28;20423;-72
2023/10/29 02:45:36;;;;;;;0.50;0.50;;;;;;;15.81;100.00;98979.03;5265363;28;20464;-72
2023/10/29 02:48:07;;;;;;;5.05;0.82;;;;;;;15.89;100.00;98977.81;5265468;28;20055;-72
2023/10/29 02:50:38;;;;;;;2.67;0.68;;;;;;;15.83;100.00;98974.22;5259532;28;20591;-72
2023/10/29 02:53:08;;;;;;;2.97;0.50;;;;;;;15.77;100.00;98978.72;5262758;28;20029;-72
2023/10/29 02:55:39;;;;;;;2.95;0.80;;;;;;;15.91;100.00;98987.31;5265009;28;20033;-72
2023/10/29 02:58:09;;;;;;;2.45;0.60;;;;;;;15.88;100.00;98987.00;5258610;28;20063;-72
2023/10/29 03:00:40;;;;;;;3.85;0.60;;;;;;;15.82;100.00;98977.16;5264196;28;20406;-72
2023/10/29 03:03:11;;;;;;;0.93;0.52;;;;;;;15.77;100.00;98980.59;5268385;28;20492;-72
2023/10/29 03:05:41;;;;;;;2.42;0.60;;;;;;;15.78;100.00;98980.34;5262193;28;20024;-72
2023/10/29 03:08:12;;;;;;;2.05;0.85;;;;;;;15.79;100.00;98989.28;5258570;28;20035;-72
2023/10/29 03:10:43;;;;;;;4.68;0.70;;;;;;;15.73;100.00;98982.97;5263667;28;20028;-72
2023/10/29 03:13:13;;;;;;;2.30;0.52;;;;;;;15.72;100.00;98975.13;5266235;28;20031;-72
2023/10/29 03:15:44;;;;;;;2.97;0.60;;;;;;;15.69;100.00;98983.69;5267066;28;20024;-72
2023/10/29 03:18:15;;;;;;;2.30;0.43;;;;;;;15.66;100.00;98990.44;5267021;28;20036;-72
2023/10/29 03:20:46;;;;;;;3.45;0.60;;;;;;;15.75;100.00;98982.72;5268154;28;20023;-72
2023/10/29 03:23:17;;;;;;;8.23;0.75;;;;;;;15.71;100.00;98995.06;5261050;28;20028;-72
2023/10/29 03:25:47;;;;;;;3.50;0.90;;;;;;;15.69;100.00;98983.69;5264462;28;20058;-72
2023/10/29 03:28:18;;;;;;;2.38;0.60;;;;;;;15.77;100.00;98981.41;5268680;28;20039;-72
2023/10/29 03:30:48;;;;;;;1.02;0.50;;;;;;;15.72;100.00;98989.44;5266404;28;20544;-72
2023/10/29 03:33:19;;;;;;;2.30;0.63;;;;;;;15.61;100.00;98979.47;5268079;28;20028;-72
2023/10/29 03:35:49;;;;;;;2.25;0.70;;;;;;;15.70;100.00;98972.63;5263777;28;20046;-72
2023/10/29 03:38:20;;;;;;;2.88;0.75;;;;;;;15.73;100.00;98977.56;5268703;28;20476;-72
2023/10/29 03:40:50;;;;;;;5.53;0.93;;;;;;;15.77;100.00;98997.66;5262457;28;20081;-72
2023/10/29 03:43:21;;;;;;;5.07;0.75;;;;;;;15.87;100.00;99001.59;5267370;28;20022;-72
2023/10/29 03:45:52;;;;;;;6.57;0.73;;;;;;;15.71;100.00;99004.03;5267310;28;20031;-72
2023/10/29 03:48:22;;;;;;;5.75;0.80;;;;;;;15.76;100.00;98993.31;5264232;28;20020;-72
2023/10/29 03:50:53;;;;;;;4.60;1.52;;;;;;;15.80;100.00;99001.72;5264453;28;20056;-72
2023/10/29 03:53:23;;;;;;;4.35;0.70;;;;;;;15.75;100.00;98993.53;5265396;28;20020;-72
2023/10/29 03:55:54;;;;;;;6.75;0.95;;;;;;;15.83;100.00;98992.31;5267368;28;20024;-72
2023/10/29 03:58:24;;;;;;;7.78;1.10;;;;;;;15.91;100.00;98986.47;5267455;28;20030;-72
2023/10/29 04:00:55;;;;;;;13.60;1.95;;;;;;;15.86;100.00;98995.31;5268748;28;20036;-72
2023/10/29 04:03:25;;;;;;;4.43;0.70;;;;;;;15.92;100.00;98993.56;5260468;28;20531;-72
2023/10/29 04:05:56;;;;;;;6.22;1.20;;;;;;;15.82;100.00;98999.63;5261737;28;20103;-72
2023/10/29 04:08:27;;;;;;;6.40;1.10;;;;;;;15.69;100.00;99003.44;5266455;28;20012;-72
2023/10/29 04:10:58;;;;;;;4.68;1.20;;;;;;;15.66;100.00;99008.50;5260165;28;20089;-73
2023/10/29 04:13:28;;;;;;;7.18;1.58;;;;;;;15.50;100.00;99008.22;5267438;28;20481;-73
2023/10/29 04:15:59;;;;;;;8.48;1.45;;;;;;;15.35;100.00;99016.03;5265085;28;20058;-73
2023/10/29 04:18:31;;;;;;;9.73;1.65;;;;;;;15.09;100.00;99022.84;5265704;28;20032;-73
2023/10/29 04:21:03;;;;;;;6.28;1.70;;;;;;;14.82;100.00;99006.38;5264183;28;20119;-73
2023/10/29 04:23:35;;;;;;;7.97;1.17;;;;;;;14.58;100.00;99027.19;5263569;28;20099;-73
2023/10/29 04:26:05;;;;;;;8.38;1.13;;;;;;;14.63;100.00;99018.38;5262832;28;20043;-72
2023/10/29 04:28:36;;;;;;;9.55;1.40;;;;;;;14.63;100.00;99013.78;5256296;28;20393;-72
2023/10/29 04:31:06;;;;;;;4.82;0.90;;;;;;;14.58;100.00;99021.78;5265221;28;20469;-73
2023/10/29 04:33:38;;;;;;;3.40;0.80;;;;;;;14.71;100.00;99009.91;5263746;28;20079;-72
2023/10/29 04:36:17;;;;;;;6.25;1.00;;;;;;;14.78;100.00;99007.91;5265803;28;20125;-72
2023/10/29 04:38:48;;;;;;;5.47;0.90;;;;;;;14.64;100.00;99026.22;5257810;28;20032;-73
2023/10/29 04:41:19;;;;;;;11.45;1.80;;;;;;;14.73;100.00;99023.97;5263306;28;20177;-73
2023/10/29 04:43:49;;;;;;;5.90;1.48;;;;;;;14.72;100.00;99036.66;5261466;28;20097;-72
2023/10/29 04:46:20;;;;;;;9.45;1.23;;;;;;;14.80;100.00;99053.53;5259952;28;20477;-72
2023/10/29 04:48:50;;;;;;;5.68;1.25;;;;;;;14.89;100.00;99054.81;5260383;28;20025;-72
2023/10/29 04:51:21;;;;;;;6.28;1.67;;;;;;;14.98;100.00;99053.41;5264772;28;20150;-73
2023/10/29 04:53:51;;;;;;;6.55;1.30;;;;;;;15.03;100.00;99067.00;5262628;28;20055;-73
2023/10/29 04:56:22;;;;;;;5.72;1.05;;;;;;;14.97;100.00;99057.97;5264208;28;20012;-73
2023/10/29 04:58:52;;;;;;;6.75;1.23;;;;;;;14.98;100.00;99072.31;5264076;28;20076;-73
2023/10/29 05:01:23;;;;;;;8.75;1.55;;;;;;;14.95;100.00;99073.59;5263727;28;20385;-72
2023/10/29 05:03:53;;;;;;;5.57;1.13;;;;;;;14.95;100.00;99070.06;5263679;28;20020;-72
2023/10/29 05:06:24;;;;;;;9.75;0.93;;;;;;;14.96;100.00;99072.53;5264467;28;20028;-72
2023/10/29 05:08:55;;;;;;;6.90;1.50;;;;;;;15.05;100.00;99067.56;5260482;28;20025;-72
2023/10/29 05:11:25;;;;;;;7.57;1.83;;;;;;;15.01;100.00;99071.84;5259749;28;20050;-72
2023/10/29 05:13:56;;;;;;;8.55;1.60;;;;;;;15.08;100.00;99066.28;5263112;28;20020;-71
2023/10/29 05:16:26;;;;;;;9.98;1.83;;;;;;;15.02;100.00;99081.56;5263125;28;20062;-71
2023/10/29 05:18:59;;;;;;;10.75;2.42;;;;;;;15.00;100.00;99106.09;5263637;28;20024;-71
2023/10/29 05:21:30;;;;;;;20.30;2.35;;;;;;;15.00;100.00;99107.97;5263284;28;20024;-71
2023/10/29 05:24:02;;;;;;;9.55;1.73;;;;;;;14.94;100.00;99109.75;5259666;28;20035;-71
2023/10/29 05:26:33;;;;;;;12.27;2.00;;;;;;;14.89;100.00;99116.91;5264454;28;20412;-71
2023/10/29 05:29:04;;;;;;;5.63;1.42;;;;;;;14.96;100.00;99104.09;5261653;28;20024;-71
2023/10/29 05:31:34;;;;;;;11.02;1.55;;;;;;;14.92;100.00;99109.19;5263608;28;20023;-71
2023/10/29 05:34:05;;;;;;;8.60;2.05;;;;;;;14.91;100.00;99117.50;5262647;28;20028;-71
2023/10/29 05:36:36;;;;;;;15.80;2.22;;;;;;;14.84;100.00;99123.03;5259077;28;20030;-71
2023/10/29 05:39:07;;;;;;;9.60;1.40;;;;;;;14.89;100.00;99125.00;5263279;28;20477;-71
2023/10/29 05:41:37;;;;;;;12.02;1.45;;;;;;;14.79;100.00;99133.69;5262493;28;20688;-71
2023/10/29 05:44:08;;;;;;;6.85;1.70;;;;;;;14.76;100.00;99126.91;5262696;28;20024;-71
2023/10/29 05:46:39;;;;;;;18.00;2.65;;;;;;;14.73;100.00;99135.47;5262843;28;20369;-71
2023/10/29 05:49:09;;;;;;;12.23;1.80;;;;;;;14.71;100.00;99151.09;5259467;28;20654;-71
2023/10/29 05:51:40;;;;;;;9.40;1.70;;;;;;;14.70;100.00;99138.63;5259824;28;20028;-71
2023/10/29 05:54:10;;;;;;;9.05;1.40;;;;;;;14.65;100.00;99148.47;5262191;28;20043;-71
2023/10/29 05:56:41;;;;;;;11.38;2.20;;;;;;;14.70;100.00;99154.00;5263585;28;20481;-71
2023/10/29 05:59:12;;;;;;;16.58;1.98;;;;;;;14.68;100.00;99140.75;5263041;28;20119;-71
2023/10/29 06:01:42;;;;;;;18.52;2.00;;;;;;;14.77;100.00;99176.31;5260588;28;20024;-71
2023/10/29 06:04:13;;;;;;;16.25;2.20;;;;;;;14.84;100.00;99158.13;5261128;28;20040;-71
2023/10/29 06:06:43;;;;;;;6.97;1.98;;;;;;;14.75;100.00;99163.03;5259561;28;20020;-71
2023/10/29 06:09:14;;;;;;;15.30;3.35;;;;;;;14.69;100.00;99171.25;5259807;28;20039;-71
2023/10/29 06:11:44;;;;;;;9.90;1.95;;;;;;;14.72;100.00;99170.81;5247843;28;20020;-71
2023/10/29 06:14:15;;;;;;;11.02;2.22;;;;;;;14.64;100.00;99179.22;5255066;28;20035;-71
2023/10/29 06:16:46;;;;;;;14.82;1.88;;;;;;;14.60;100.00;99170.78;5260301;28;20085;-71
2023/10/29 06:19:16;;;;;;;11.98;2.25;;;;;;;14.59;100.00;99181.81;5253632;28;20385;-71
2023/10/29 06:21:47;;;;;;;14.60;2.45;;;;;;;14.55;100.00;99175.22;5259302;28;20020;-71
2023/10/29 06:24:17;;;;;;;7.95;1.80;;;;;;;14.54;100.00;99187.91;5253778;28;20032;-71
2023/10/29 06:26:48;;;;;;;13.93;2.33;;;;;;;14.42;100.00;99198.66;5260385;28;20055;-71
2023/10/29 06:29:18;;;;;;;12.55;2.08;;;;;;;14.51;100.00;99193.78;5255478;28;20028;-71
2023/10/29 06:31:49;;;;;;;8.90;2.00;;;;;;;14.36;100.00;99186.09;5257328;28;20032;-71
2023/10/29 06:34:21;;;;;;;8.68;1.83;;;;;;;14.45;100.00;99194.66;5257238;28;20028;-72
2023/10/29 06:36:51;;;;;;;9.35;1.55;;;;;;;14.38;100.00;99205.56;5262985;28;20031;-72
2023/10/29 06:39:22;;;;;;;9.50;2.00;;;;;;;14.50;100.00;99203.72;5265628;28;20020;-72
2023/10/29 06:41:52;;;;;;;12.75;1.80;;;;;;;14.46;100.00;99197.13;5265841;28;20032;-72
2023/10/29 06:44:23;;;;;;;11.30;1.50;;;;;;;14.41;100.00;99226.69;5264417;28;20061;-72
2023/10/29 06:46:54;;;;;;;12.13;2.05;;;;;;;14.36;100.00;99228.44;5265748;28;20036;-72
2023/10/29 06:49:25;;;;;;;13.55;2.20;;;;;;;14.42;100.00;99212.13;5265917;28;20020;-72
2023/10/29 06:51:55;;;;;;;13.63;2.40;;;;;;;14.29;100.00;99223.13;5257259;28;20485;-72
2023/10/29 06:54:26;;;;;;;11.48;1.63;;;;;;;14.23;100.00;99230.25;5264747;28;20035;-72
2023/10/29 06:56:56;;;;;;;13.95;1.85;;;;;;;14.24;100.00;99233.78;5265394;28;20023;-72
2023/10/29 06:59:28;;;;;;;9.68;2.03;;;;;;;14.33;100.00;99237.78;5268484;28;20047;-72
2023/10/29 07:01:59;;;;;;;7.47;1.52;;;;;;;14.15;100.00;99248.63;5262233;28;20449;-72
2023/10/29 07:04:30;;;;;;;8.10;1.77;;;;;;;14.16;100.00;99237.63;5264168;28;20110;-72
2023/10/29 07:07:00;;;;;;;11.73;1.40;;;;;;;14.17;100.00;99220.38;5264913;28;20729;-72
2023/10/29 07:09:31;;;;;;;9.23;1.85;;;;;;;14.09;100.00;99223.41;5260169;28;20362;-72
2023/10/29 07:12:03;;;;;;;16.05;2.25;;;;;;;14.12;100.00;99244.53;5265024;28;20565;-72
2023/10/29 07:14:33;;;;;;;8.45;1.45;;;;;;;14.13;100.00;99262.34;5260919;28;20367;-72
2023/10/29 07:17:04;;;;;;;11.57;1.88;;;;;;;14.12;100.00;99281.47;5264867;28;20023;-72
2023/10/29 07:19:34;;;;;;;17.77;1.90;;;;;;;14.20;100.00;99291.91;5264313;28;20418;-72
2023/10/29 07:22:05;;;;;;;15.80;2.10;;;;;;;14.26;100.00;99296.41;5258826;28;20397;-72
2023/10/29 07:24:36;;;;;;;8.02;1.35;;;;;;;14.34;100.00;99281.78;5263301;28;20382;-72
2023/10/29 07:27:06;;;;;;;17.25;2.08;;;;;;;14.45;100.00;99291.78;5265834;27;20019;-71
2023/10/29 07:29:37;;;;;;;10.27;1.67;;;;;;;14.65;100.00;99316.63;5270796;28;20031;-72
2023/10/29 07:32:08;;;;;;;8.68;1.98;;;;;;;14.92;100.00;99329.75;5272062;28;20030;-72
2023/10/29 07:34:39;;;;;;;7.80;1.60;;;;;;;15.27;100.00;99316.31;5270443;28;20389;-72
2023/10/29 07:37:11;;;;;;;9.20;1.55;;;;;;;15.40;100.00;99317.94;5268135;28;20137;-72
2023/10/29 07:39:42;;;;;;;16.73;2.45;;;;;;;15.85;100.00;99311.94;5264411;28;20028;-72
2023/10/29 07:42:12;;;;;;;13.88;1.95;;;;;;;16.01;100.00;99306.66;5269905;28;20608;-72
2023/10/29 07:44:43;;;;;;;13.38;1.85;;;;;;;16.15;100.00;99314.47;5269858;28;20469;-72
2023/10/29 07:47:13;;;;;;;12.32;1.60;;;;;;;16.03;100.00;99301.81;5264477;28;20389;-72
2023/10/29 07:49:44;;;;;;;11.18;1.50;;;;;;;16.05;100.00;99312.38;5272918;28;20019;-72
2023/10/29 07:52:15;;;;;;;8.15;1.25;;;;;;;16.44;100.00;99323.44;5271360;28;20079;-72
2023/10/29 07:54:46;;;;;;;13.65;1.88;;;;;;;16.40;100.00;99325.78;5266335;28;20048;-72
2023/10/29 07:57:17;;;;;;;12.52;1.77;;;;;;;16.67;100.00;99319.81;5267358;28;20147;-72
2023/10/29 07:59:47;;;;;;;7.88;1.73;;;;;;;16.66;100.00;99339.81;5262517;28;20031;-72
2023/10/29 08:02:18;;;;;;;9.60;2.20;;;;;;;16.77;100.00;99339.00;5264321;28;20032;-72
2023/10/29 08:04:48;;;;;;;12.77;2.03;;;;;;;17.08;100.00;99343.88;5269489;28;20072;-72
2023/10/29 08:07:20;;;;;;;10.07;1.77;;;;;;;17.04;100.00;99328.34;5270264;28;20028;-72
2023/10/29 08:09:50;;;;;;;9.27;1.52;;;;;;;17.23;100.00;99310.78;5268391;28;20031;-72
2023/10/29 08:12:20;;;;;;;15.55;1.80;;;;;;;16.93;100.00;99329.25;5259512;28;20473;-72
2023/10/29 08:14:51;;;;;;;10.43;1.77;;;;;;;16.57;100.00;99325.88;5263980;28;20110;-72
2023/10/29 08:17:21;;;;;;;17.30;2.28;;;;;;;16.81;100.00;99321.97;5259515;28;20538;-72
2023/10/29 08:19:52;;;;;;;10.98;1.70;;;;;;;16.92;100.00;99325.72;5263602;28;20821;-72
2023/10/29 08:22:22;;;;;;;12.80;2.40;;;;;;;16.95;100.00;99335.22;5264901;28;20043;-73
2023/10/29 08:24:53;;;;;;;10.45;1.80;;;;;;;17.06;100.00;99334.31;5263027;28;20066;-72
2023/10/29 08:27:24;;;;;;;13.35;2.35;;;;;;;17.03;100.00;99342.97;5267003;28;20028;-73
2023/10/29 08:29:54;;;;;;;11.27;1.75;;;;;;;16.89;100.00;99347.88;5271268;28;20058;-72
2023/10/29 08:32:27;;;;;;;16.65;2.42;;;;;;;16.65;100.00;99370.66;5265461;28;20024;-72
2023/10/29 08:34:58;;;;;;;7.10;2.00;;;;;;;16.86;100.00;99370.00;5263710;28;20050;-72
2023/10/29 08:37:28;;;;;;;13.52;2.17;;;;;;;17.46;100.00;99374.00;5267372;28;20074;-72
2023/10/29 08:39:59;;;;;;;11.88;1.98;;;;;;;17.11;100.00;99380.47;5268329;28;20027;-72
2023/10/29 08:42:30;;;;;;;13.63;3.90;;;;;;;17.00;100.00;99394.91;5265392;28;20736;-72
2023/10/29 08:45:00;;;;;;;18.50;2.58;;;;;;;16.76;100.00;99395.00;5263440;28;20024;-72
2023/10/29 08:47:31;;;;;;;13.07;2.78;;;;;;;16.11;100.00;99411.50;5265595;28;20039;-72
2023/10/29 08:50:02;;;;;;;15.70;2.42;;;;;;;16.11;100.00;99410.69;5266086;28;20023;-72
2023/10/29 08:52:32;;;;;;;12.30;1.95;;;;;;;16.07;100.00;99406.84;5266102;28;20034;-72
2023/10/29 08:55:03;;;;;;;11.57;2.85;;;;;;;16.30;100.00;99412.19;5263913;28;20039;-72
2023/10/29 08:57:35;;;;;;;7.78;1.83;;;;;;;16.33;100.00;99389.25;5265551;28;20044;-72
2023/10/29 09:00:06;;;;;;;7.53;1.77;;;;;;;16.59;100.00;99396.81;5262541;28;20028;-72
2023/10/29 09:02:37;;;;;;;14.85;2.25;;;;;;;17.07;100.00;99406.44;5268138;28;20043;-72
2023/10/29 09:05:08;;;;;;;14.07;2.00;;;;;;;17.08;100.00;99416.19;5262444;28;20055;-72
2023/10/29 09:07:39;;;;;;;11.85;2.30;;;;;;;17.41;100.00;99415.41;5265194;28;20059;-72
2023/10/29 09:10:10;;;;;;;12.73;2.10;;;;;;;17.20;100.00;99427.78;5259915;28;20028;-72
2023/10/29 09:12:40;;;;;;;10.35;1.65;;;;;;;16.98;100.00;99422.25;5260577;28;20023;-72
2023/10/29 09:15:12;;;;;;;13.45;2.10;;;;;;;16.83;100.00;99393.00;5260697;28;20024;-72
2023/10/29 09:17:42;;;;;;;11.85;2.15;;;;;;;16.92;100.00;99398.00;5259191;28;20025;-73
2023/10/29 09:20:12;;;;;;;18.65;2.35;;;;;;;16.45;100.00;99388.16;5262658;28;20496;-72
2023/10/29 09:22:43;;;;;;;12.02;2.58;;;;;;;16.70;100.00;99398.66;5262920;28;20043;-72
2023/10/29 09:25:14;;;;;;;7.53;2.00;;;;;;;16.56;100.00;99400.00;5257750;28;20100;-72
2023/10/29 09:27:47;;;;;;;10.70;1.75;;;;;;;16.30;100.00;99391.38;5267679;28;20018;-72
2023/10/29 09:30:17;;;;;;;16.05;1.80;;;;;;;16.19;100.00;99386.81;5262211;28;20035;-72
2023/10/29 09:32:48;;;;;;;18.10;2.17;;;;;;;16.18;100.00;99392.47;5259665;28;20380;-72
2023/10/29 09:35:19;;;;;;;14.00;2.03;;;;;;;15.97;100.00;99369.56;5260003;28;20032;-72
2023/10/29 09:37:51;;;;;;;13.38;2.03;;;;;;;16.07;100.00;99379.78;5264155;28;20040;-72
2023/10/29 09:40:22;;;;;;;11.63;1.60;;;;;;;16.05;100.00;99372.69;5264678;28;20050;-72
2023/10/29 09:42:54;;;;;;;8.75;1.92;;;;;;;15.97;100.00;99374.97;5264058;28;20035;-72
2023/10/29 09:45:26;;;;;;;20.92;2.35;;;;;;;16.06;100.00;99395.16;5261593;28;20054;-72
2023/10/29 09:47:58;;;;;;;17.02;2.22;;;;;;;16.02;100.00;99373.19;5265010;28;20016;-72
2023/10/29 09:50:29;;;;;;;15.98;2.55;;;;;;;15.94;100.00;99368.13;5264508;28;20734;-72
2023/10/29 09:53:02;;;;;;;11.13;2.33;;;;;;;15.91;100.00;99365.09;5264218;28;20103;-72
2023/10/29 09:55:33;;;;;;;9.75;2.28;;;;;;;15.84;100.00;99348.16;5261615;28;20043;-72
2023/10/29 09:58:04;;;;;;;8.00;1.63;;;;;;;15.90;100.00;99356.16;5261869;28;20036;-72
2023/10/29 10:00:36;;;;;;;10.93;2.78;;;;;;;15.87;100.00;99369.34;5264139;28;20417;-72
2023/10/29 10:03:07;;;;;;;12.35;2.22;;;;;;;15.84;100.00;99375.22;5264219;28;20020;-72
2023/10/29 10:05:40;;;;;;;11.13;1.83;;;;;;;15.95;100.00;99377.91;5263769;28;20031;-72
2023/10/29 10:08:10;;;;;;;11.05;2.40;;;;;;;16.02;100.00;99388.59;5261880;28;20392;-72
2023/10/29 10:10:43;;;;;;;10.70;1.60;;;;;;;16.29;100.00;99384.31;5259717;28;20040;-72
2023/10/29 10:13:15;;;;;;;16.00;2.10;;;;;;;16.27;100.00;99380.22;5261235;28;20023;-72
2023/10/29 10:15:48;;;;;;;9.00;1.92;;;;;;;16.31;100.00;99405.72;5261935;28;20043;-72
2023/10/29 10:18:20;;;;;;;8.32;1.95;;;;;;;16.27;100.00;99412.69;5263570;28;20085;-72
2023/10/29 10:20:56;;;;;;;9.45;1.92;;;;;;;16.34;100.00;99415.25;5260665;28;20099;-72
2023/10/29 10:23:45;;;;;;;20.02;2.63;;;;;;;16.21;100.00;99438.78;5258186;28;20044;-72
2023/10/29 10:26:18;;;;;;;17.15;2.33;;;;;;;16.24;100.00;99442.91;5251470;28;20389;-72
2023/10/29 10:28:56;;;;;;;16.05;3.03;;;;;;;16.23;100.00;99444.81;5255700;28;20552;-72
2023/10/29 10:31:27;;;;;;;13.55;1.85;;;;;;;15.92;100.00;99440.59;5261214;28;20032;-72
2023/10/29 10:34:18;;;;;;;14.23;2.95;;;;;;;16.00;100.00;99447.50;5261436;28;20027;-72
2023/10/29 10:36:49;;;;;;;14.57;1.90;;;;;;;15.95;100.00;99445.50;5262454;28;20051;-71
2023/10/29 10:39:22;;;;;;;14.27;2.35;;;;;;;15.94;100.00;99437.63;5261881;28;20054;-72
2023/10/29 10:41:53;;;;;;;14.77;2.20;;;;;;;15.78;100.00;99434.59;5259140;28;20807;-72
2023/10/29 10:44:26;;;;;;;17.15;2.40;;;;;;;15.63;100.00;99426.09;5261025;28;20028;-72
2023/10/29 10:47:00;;;;;;;11.85;2.08;;;;;;;15.65;100.00;99440.19;5261151;28;20031;-72
2023/10/29 10:49:32;;;;;;;17.10;2.15;;;;;;;15.63;100.00;99444.19;5261531;28;20036;-72
2023/10/29 10:52:04;;;;;;;12.60;2.38;;;;;;;15.64;100.00;99416.94;5261548;28;20031;-72
2023/10/29 10:54:36;;;;;;;13.45;2.63;;;;;;;15.63;100.00;99414.44;5262273;28;20056;-72
2023/10/29 10:57:07;;;;;;;13.70;2.28;;;;;;;15.49;100.00;99417.34;5260576;28;20043;-72
2023/10/29 10:59:39;;;;;;;7.53;2.10;;;;;;;15.77;100.00;99397.78;5260678;28;20039;-72
2023/10/29 11:02:12;;;;;;;12.05;2.00;;;;;;;15.71;100.00;99371.69;5262005;28;20145;-72
2023/10/29 11:04:46;;;;;;;10.77;2.17;;;;;;;15.67;100.00;99365.13;5257647;28;20067;-72
2023/10/29 11:07:16;;;;;;;13.43;2.15;;;;;;;15.80;100.00;99345.09;5256961;28;20028;-72
2023/10/29 11:09:47;;;;;;;12.60;2.22;;;;;;;15.74;100.00;99325.25;5258152;28;20115;-72
2023/10/29 11:12:20;;;;;;;9.00;2.15;;;;;;;15.80;100.00;99345.94;5257232;28;20099;-72
2023/10/29 11:15:11;;;;;;;10.98;2.08;;;;;;;15.75;100.00;99332.28;5259824;28;20036;-72
2023/10/29 11:17:58;;;;;;;17.05;2.10;;;;;;;16.04;100.00;99326.97;5252566;28;20028;-72
2023/10/29 11:20:38;;;;;;;13.77;2.17;;;;;;;16.15;100.00;99322.59;5259547;28;20659;-72
2023/10/29 11:23:09;;;;;;;15.55;2.22;;;;;;;16.19;100.00;99327.28;5259651;28;20032;-72
2023/10/29 11:25:41;;;;;;;10.02;1.88;;;;;;;16.40;100.00;99300.63;5260358;28;20043;-72
2023/10/29 11:28:24;;;;;;;7.18;1.90;;;;;;;16.63;100.00;99313.25;5262974;28;20387;-72
2023/10/29 11:31:18;;;;;;;9.60;1.95;;;;;;;16.39;100.00;99315.22;5261035;28;20031;-72
2023/10/29 11:34:08;;;;;;;12.32;2.03;;;;;;;16.58;100.00;99311.25;5262677;28;20024;-72
2023/10/29 11:36:41;;;;;;;14.82;2.15;;;;;;;16.55;100.00;99300.91;5262594;28;20043;-73
2023/10/29 11:39:14;;;;;;;12.57;1.65;;;;;;;16.58;100.00;99295.84;5261381;28;20063;-72
2023/10/29 11:41:46;;;;;;;17.00;2.22;;;;;;;16.50;100.00;99311.63;5266930;28;20035;-73